This is the latest recevied weather packets stored in our database for station/object PY2CQC-13. If no packets are shown the sender has not sent any weather packets the latest 10 day(s).
| Time | Temp. | Humidity | Pressure | Rain* | Wind** | Luminosity | Snow |
|---|---|---|---|---|---|---|---|
| 1777386724 | 25° C | 67% | 1033.9 hPa | - | - | - | - |
| 1777384925 | 25° C | 67% | 1034.1 hPa | - | - | - | - |
| 1777383125 | 23.89° C | 70% | 1034.4 hPa | - | - | - | - |
| 1777381325 | 23.33° C | 76% | 1034.4 hPa | - | - | - | - |
| 1777379525 | 22.22° C | 81% | 1034.4 hPa | - | - | - | - |
| 1777377724 | 21.67° C | 84% | 1034.4 hPa | - | - | - | - |
| 1777375924 | 21.67° C | 83% | 1033.9 hPa | - | - | - | - |
| 1777374124 | 20.56° C | 86% | 1033.9 hPa | - | - | - | - |
| 1777372325 | 19.44° C | 90% | 1033.6 hPa | - | - | - | - |
| 1777370525 | 19.44° C | 92% | 1033.2 hPa | - | - | - | - |
| 1777368725 | 19.44° C | 91% | 1032.7 hPa | - | - | - | - |
| 1777366925 | 23.33° C | 73% | 1032.2 hPa | - | - | - | - |
| 1777365125 | 23.33° C | 73% | 1031.9 hPa | - | - | - | - |
| 1777363325 | 23.33° C | 72% | 1031.6 hPa | - | - | - | - |
| 1777361524 | 23.33° C | 72% | 1031.6 hPa | - | - | - | - |
| 1777357928 | 23.89° C | 72% | 1031.6 hPa | - | - | - | - |
| 1777356125 | 23.89° C | 71% | 1031.6 hPa | - | - | - | - |
| 1777354325 | 23.89° C | 71% | 1031.7 hPa | - | - | - | - |
| 1777352524 | 23.89° C | 72% | 1031.8 hPa | - | - | - | - |
| 1777350724 | 23.89° C | 72% | 1031.9 hPa | - | - | - | - |
| 1777348934 | 23.89° C | 72% | 1032.3 hPa | - | - | - | - |
| 1777347125 | 24.44° C | 71% | 1032.4 hPa | - | - | - | - |
| 1777345325 | 24.44° C | 71% | 1032.5 hPa | - | - | - | - |
| 1777343525 | 23.89° C | 72% | 1032.7 hPa | - | - | - | - |
| 1777341725 | 24.44° C | 71% | 1033 hPa | - | - | - | - |
* Rain since midnight (hover to see other rain measurements)
** Current wind speed in m/s (hover to see current wind gust speed)